Accueil
METAR-TAF:

METAR-TAF

Aéroports :

Vaasa, Finlande

Aéroport de Vaasa

latitude: 63-03N, longitude: 021-46E, altitude: 4 m

Observation

Le bulletin a été fait il y a 14 minutes, à 10:50 UTC
Vent 8 kt de sud
Température 3°C
Humidité 81%
Pression 1002 hPa
Visibilité 10 km ou plus

METAR: EFVA 251050Z AUTO 19008KT 9999 FEW023/// 03/00 Q1002

Heure: 13:04 (11:04 UTC)

Prévision

Le bulletin a été fait il y a 2 heures et 39 minutes, à 08:25 UTC
Prévision valable du 25 à 09 UTC au 26 à 09 UTC
Vent 7 kt de sud
Visibilité 10 km ou plus
Nuages fragmentés à une hauteur de 1800 ft
Temporairement
du 25 à 09 UTC au 25 à 17 UTC
Nuages fragmentés à une hauteur de 1400 ft
Temporairement
du 25 à 17 UTC au 26 à 09 UTC
Visibilité: 4000 m
Ciel couvert à une hauteur de 300 ft
brume

TAF: EFVA 250825Z 2509/2609 19007KT 9999 BKN018 TEMPO 2509/2517 BKN014 TEMPO 2517/2609 4000 BR OVC003

Observations et prévisions météorologiques de plus de 4000 aéroports (messages METAR et TAF).

Les stations disponibles sont représentées par des disques jaunes et rouges sur la carte.

Passer la souris dessus pour voir le nom de la station.

Cliquer dessus pour voir les observations et prévisions météorologiques.

Pour changer de carte: cliquez sur les boutons verts avec une croix noire pour zoomer, sur le bouton vert avec un tiret pour effectuer un zoom arrière, ou sur les flèches vertes pour les cartes adjacentes.


METAR-TAF: